Time;durP1;ratioP1;P1;durP2;ratioP2;P2;SDS_P1;SDS_P2;PMS_P1;PMS_P2;Temp;Humidity;BMP_temperature;BMP_pressure;BME280_temperature;BME280_humidity;BME280_pressure;Samples;Min_cycle;Max_cycle;Signal;HPM_P1;HPM_P2
2022/12/06 00:00:51;;;;;;;1.47;1.40;;;3.50;99.90;2.40;96070.00;;;;5035211;28;20511;-57
2022/12/06 00:03:17;;;;;;;1.60;1.50;;;3.60;99.90;2.40;96075.00;;;;5034879;28;20226;-59
2022/12/06 00:05:44;;;;;;;1.37;1.37;;;3.50;99.90;2.40;96064.00;;;;5017475;28;20220;-57
2022/12/06 00:08:10;;;;;;;0.87;0.87;;;3.40;99.90;2.40;96073.00;;;;5034794;28;20200;-61
2022/12/06 00:10:37;;;;;;;0.93;0.93;;;3.40;99.90;2.40;96069.00;;;;5034936;28;20232;-61
2022/12/06 00:13:04;;;;;;;1.20;1.20;;;3.40;99.90;2.20;96064.00;;;;5034863;28;20266;-58
2022/12/06 00:15:35;;;;;;;2.73;1.63;;;3.40;99.90;2.30;96071.00;;;;5034929;28;20205;-58
2022/12/06 00:18:02;;;;;;;1.90;1.80;;;3.30;99.90;2.20;96066.00;;;;5034826;28;20223;-63
2022/12/06 00:20:28;;;;;;;1.70;1.60;;;3.30;99.90;2.30;96067.00;;;;5035109;28;20208;-59
2022/12/06 00:22:55;;;;;;;0.90;0.90;;;3.30;99.90;2.20;96070.00;;;;5034644;28;20521;-58
2022/12/06 00:25:21;;;;;;;1.43;1.33;;;3.20;99.90;2.20;96062.00;;;;5034582;28;20216;-59
2022/12/06 00:27:50;;;;;;;1.47;1.37;;;3.20;99.90;2.10;96066.00;;;;5034470;28;20550;-58
2022/12/06 00:30:18;;;;;;;1.47;1.37;;;3.30;99.90;2.20;96065.00;;;;5034581;28;20225;-58
2022/12/06 00:32:46;;;;;;;0.90;0.90;;;3.20;99.90;2.20;96063.00;;;;5034519;28;20196;-57
2022/12/06 00:35:13;;;;;;;1.67;1.57;;;3.30;99.90;2.20;96056.00;;;;5034340;28;20196;-58
2022/12/06 00:37:39;;;;;;;1.07;1.07;;;3.20;99.90;2.30;96060.00;;;;5017087;28;20220;-58
2022/12/06 00:40:07;;;;;;;1.20;1.20;;;3.30;99.90;2.20;96049.00;;;;5034338;28;20702;-59
2022/12/06 00:42:34;;;;;;;0.83;0.83;;;3.20;99.90;2.20;96027.00;;;;5016832;28;20532;-61
2022/12/06 00:45:00;;;;;;;1.90;1.40;;;3.20;99.90;2.20;96056.00;;;;5034235;28;20227;-61
2022/12/06 00:47:27;;;;;;;1.53;1.43;;;3.20;99.90;2.20;96046.00;;;;5034523;28;20258;-59
2022/12/06 00:49:54;;;;;;;1.67;1.57;;;3.20;99.90;2.20;96043.00;;;;5034442;28;20224;-59
2022/12/06 00:52:20;;;;;;;1.20;1.20;;;3.20;99.90;2.10;96051.00;;;;5017056;28;20710;-58
2022/12/06 00:54:47;;;;;;;1.07;1.07;;;3.20;99.90;2.10;96052.00;;;;5034384;28;20209;-66
2022/12/06 00:57:13;;;;;;;4.63;1.47;;;3.20;99.90;2.20;96048.00;;;;5034212;28;20236;-60
2022/12/06 00:59:39;;;;;;;1.10;1.10;;;3.20;99.90;2.20;96051.00;;;;5034344;28;20207;-59
2022/12/06 01:02:06;;;;;;;1.00;1.00;;;3.20;99.90;2.10;96038.00;;;;5034163;28;20193;-59
2022/12/06 01:04:33;;;;;;;1.30;1.10;;;3.10;99.90;2.10;96040.00;;;;5033470;28;20204;-60
2022/12/06 01:07:00;;;;;;;1.23;1.20;;;3.10;99.90;2.10;96044.00;;;;5033905;28;20221;-62
2022/12/06 01:09:29;;;;;;;1.00;1.00;;;3.10;99.90;2.10;96050.00;;;;5033973;28;20239;-60
2022/12/06 01:11:57;;;;;;;1.20;1.20;;;3.20;99.90;2.10;96038.00;;;;5034078;28;20220;-60
2022/12/06 01:14:24;;;;;;;2.20;2.03;;;3.10;99.90;2.10;96039.00;;;;5032896;28;20212;-60
2022/12/06 01:16:50;;;;;;;1.07;1.07;;;3.10;99.90;2.20;96028.00;;;;5033800;28;20561;-62
2022/12/06 01:19:19;;;;;;;1.30;1.30;;;3.20;99.90;2.10;96033.00;;;;5016315;28;20219;-60
2022/12/06 01:21:48;;;;;;;3.90;1.00;;;3.10;99.90;2.10;96039.00;;;;5033797;28;20509;-59
2022/12/06 01:24:15;;;;;;;1.10;1.10;;;3.10;99.90;2.10;96043.00;;;;5033739;28;20235;-59
2022/12/06 01:26:41;;;;;;;0.90;0.90;;;3.20;99.90;2.10;96044.00;;;;5033690;28;20224;-60
2022/12/06 01:29:09;;;;;;;0.90;0.90;;;3.10;99.90;2.20;96048.00;;;;5034063;28;20212;-60
2022/12/06 01:31:35;;;;;;;1.00;1.00;;;3.20;99.90;2.30;96052.00;;;;5033989;28;20209;-62
2022/12/06 01:34:02;;;;;;;0.77;0.77;;;3.20;99.90;2.30;96029.00;;;;5034027;28;20238;-59
2022/12/06 01:36:28;;;;;;;1.00;1.00;;;3.30;99.90;2.30;96046.00;;;;5033607;28;20683;-59
2022/12/06 01:38:59;;;;;;;0.70;0.70;;;3.30;99.90;2.30;96041.00;;;;5033759;28;20226;-60
2022/12/06 01:41:27;;;;;;;1.10;1.10;;;3.30;99.90;2.30;96042.00;;;;5033541;28;20562;-59
2022/12/06 01:43:56;;;;;;;2.73;1.67;;;3.40;99.90;2.30;96047.00;;;;5033529;28;20224;-59
2022/12/06 01:46:30;;;;;;;1.70;1.57;;;3.30;99.90;2.30;96040.00;;;;5033447;28;20251;-62
2022/12/06 01:49:08;;;;;;;1.10;1.10;;;3.30;99.90;2.30;96035.00;;;;5033370;28;20353;-59
2022/12/06 01:51:35;;;;;;;1.07;1.07;;;3.30;99.90;2.40;96040.00;;;;5033414;28;20542;-60
2022/12/06 01:54:08;;;;;;;2.10;1.30;;;3.40;99.90;2.40;96036.00;;;;5033349;28;20193;-58
2022/12/06 01:56:36;;;;;;;1.83;0.93;;;3.40;99.90;2.30;96030.00;;;;5033427;28;20543;-59
2022/12/06 01:59:05;;;;;;;1.57;1.47;;;3.40;99.90;2.40;96031.00;;;;5033393;28;20203;-59
2022/12/06 02:01:33;;;;;;;1.00;1.00;;;3.40;99.90;2.40;96031.00;;;;5033232;28;20290;-60
2022/12/06 02:04:01;;;;;;;1.30;1.27;;;3.40;99.90;2.40;96015.00;;;;5033328;28;20204;-59
2022/12/06 02:06:30;;;;;;;1.00;1.00;;;3.50;99.90;2.40;96037.00;;;;5033164;28;20290;-59
2022/12/06 02:09:00;;;;;;;0.73;0.73;;;3.50;99.90;2.40;96038.00;;;;5015947;28;20573;-59
2022/12/06 02:11:27;;;;;;;1.27;1.27;;;3.40;99.90;2.30;96026.00;;;;5015874;28;20204;-59
2022/12/06 02:13:53;;;;;;;1.00;1.00;;;3.30;99.90;2.30;96021.00;;;;5033199;28;20221;-60
2022/12/06 02:16:44;;;;;;;1.50;1.40;;;3.30;99.90;2.30;96027.00;;;;5033482;28;20212;-59
2022/12/06 02:19:55;;;;;;;1.07;1.07;;;3.30;99.90;2.30;96011.00;;;;5036552;28;20224;-62
2022/12/06 02:22:42;;;;;;;3.40;1.70;;;3.30;99.90;2.30;96018.00;;;;5036835;28;20213;-60
2022/12/06 02:25:34;;;;;;;1.10;1.10;;;3.30;99.90;2.30;96011.00;;;;5036471;28;20601;-59
2022/12/06 02:28:29;;;;;;;1.00;1.00;;;3.30;99.90;2.20;96012.00;;;;5036430;28;20636;-59
2022/12/06 02:31:01;;;;;;;1.80;1.70;;;3.30;99.90;2.30;96015.00;;;;5036508;28;20196;-60
2022/12/06 02:33:38;;;;;;;2.17;1.97;;;3.30;99.90;2.30;96016.00;;;;5036650;28;20196;-60
2022/12/06 02:36:14;;;;;;;0.93;0.93;;;3.20;99.90;2.30;96014.00;;;;5019035;28;20207;-59
2022/12/06 02:38:48;;;;;;;1.00;1.00;;;3.20;99.90;2.20;96021.00;;;;5018945;28;20658;-59
2022/12/06 02:41:23;;;;;;;1.10;1.00;;;3.30;99.90;2.20;96014.00;;;;5036295;28;20211;-59
2022/12/06 02:43:57;;;;;;;1.53;1.47;;;3.20;99.90;2.10;96005.00;;;;5036303;28;20259;-59
2022/12/06 02:46:28;;;;;;;1.00;1.00;;;3.20;99.90;2.10;96001.00;;;;5036688;28;20223;-59
2022/12/06 02:48:58;;;;;;;0.80;0.80;;;3.10;99.90;2.20;95996.00;;;;5036269;28;20204;-59
2022/12/06 02:51:28;;;;;;;1.10;1.10;;;3.20;99.90;2.10;96004.00;;;;5036136;28;20199;-60
2022/12/06 02:54:02;;;;;;;0.90;0.90;;;3.20;99.90;2.10;96002.00;;;;5036299;28;20258;-59
2022/12/06 02:56:30;;;;;;;1.60;1.17;;;3.20;99.90;2.20;96008.00;;;;5036133;28;20228;-60
2022/12/06 02:58:57;;;;;;;1.10;1.10;;;3.20;99.90;2.20;95999.00;;;;5036042;28;20204;-59
2022/12/06 03:01:28;;;;;;;1.20;1.20;;;3.20;99.90;2.20;96010.00;;;;5035969;28;20195;-59
2022/12/06 03:04:30;;;;;;;0.83;0.83;;;3.20;99.90;2.20;95995.00;;;;5036094;28;20555;-60
2022/12/06 03:07:14;;;;;;;0.80;0.80;;;3.20;99.90;2.20;95993.00;;;;5036150;28;20239;-59
2022/12/06 03:09:57;;;;;;;0.90;0.90;;;3.30;99.90;2.30;96004.00;;;;5036167;28;20303;-60
2022/12/06 03:12:32;;;;;;;1.67;1.57;;;3.20;99.90;2.10;95998.00;;;;5036236;28;20203;-58
2022/12/06 03:15:10;;;;;;;2.20;2.10;;;3.20;99.90;2.10;96005.00;;;;5018323;28;20338;-59
2022/12/06 03:17:46;;;;;;;1.00;1.00;;;3.20;99.90;2.10;96002.00;;;;5035955;28;20196;-59
2022/12/06 03:20:20;;;;;;;0.97;0.97;;;3.10;99.90;2.20;96001.00;;;;5035703;28;20203;-59
2022/12/06 03:22:54;;;;;;;1.10;1.10;;;3.20;99.90;2.20;95983.00;;;;5018385;28;20310;-60
2022/12/06 03:25:21;;;;;;;1.27;0.90;;;3.20;99.90;2.20;96000.00;;;;5035579;28;20215;-62
2022/12/06 03:27:50;;;;;;;1.13;1.13;;;3.20;99.90;2.20;95991.00;;;;5035024;28;20227;-59
2022/12/06 03:30:17;;;;;;;0.67;0.67;;;3.20;99.90;2.20;95987.00;;;;5035556;28;20542;-62
2022/12/06 03:32:49;;;;;;;1.63;1.53;;;3.20;99.90;2.20;95992.00;;;;5035459;28;20210;-59
2022/12/06 03:35:21;;;;;;;2.87;1.70;;;3.20;99.90;2.20;95989.00;;;;5035476;28;20215;-59
2022/12/06 03:37:54;;;;;;;2.70;1.53;;;3.20;99.90;2.10;95979.00;;;;5035494;28;20183;-59
2022/12/06 03:40:27;;;;;;;1.83;1.73;;;3.20;99.90;2.10;95985.00;;;;5035254;28;20223;-59
2022/12/06 03:42:56;;;;;;;1.73;1.63;;;3.20;99.90;2.10;95985.00;;;;5035588;28;20684;-59
2022/12/06 03:45:29;;;;;;;2.63;1.97;;;3.20;99.90;2.10;95980.00;;;;5035264;28;20380;-59
2022/12/06 03:48:07;;;;;;;1.00;1.00;;;3.20;99.90;2.10;95984.00;;;;5017903;28;20529;-59
2022/12/06 03:50:39;;;;;;;0.80;0.80;;;3.20;99.90;2.00;95972.00;;;;5017971;28;20550;-59
2022/12/06 03:53:06;;;;;;;1.30;1.20;;;3.10;99.90;2.10;95987.00;;;;5035267;28;20200;-59
2022/12/06 03:55:32;;;;;;;1.20;1.20;;;3.10;99.90;2.00;95988.00;;;;5035361;28;20194;-59
2022/12/06 03:57:58;;;;;;;0.80;0.80;;;3.10;99.90;2.10;95977.00;;;;5035297;28;20290;-58
2022/12/06 04:00:25;;;;;;;1.17;1.17;;;3.10;99.90;2.00;95973.00;;;;5035392;28;20201;-61
2022/12/06 04:02:51;;;;;;;1.83;1.73;;;3.00;99.90;2.10;95989.00;;;;5035067;28;20571;-62
2022/12/06 04:05:18;;;;;;;1.00;1.00;;;3.10;99.90;2.10;95985.00;;;;5017524;28;20510;-60
2022/12/06 04:07:45;;;;;;;1.63;1.53;;;3.10;99.90;1.90;95973.00;;;;5035437;28;20219;-58
2022/12/06 04:10:11;;;;;;;1.23;1.23;;;3.00;99.90;1.90;95993.00;;;;5035140;28;20240;-57
2022/12/06 04:15:23;;;;;;;0.70;0.70;;;3.00;99.90;2.00;95970.00;;;;5017498;28;20220;-58
2022/12/06 04:18:12;;;;;;;0.83;0.83;;;3.00;99.90;2.00;95958.00;;;;5017557;28;20207;-61
2022/12/06 04:23:36;;;;;;;0.90;0.90;;;3.00;99.90;2.00;95961.00;;;;5034672;28;20239;-58
2022/12/06 04:26:04;;;;;;;0.93;0.93;;;3.10;99.90;2.00;95952.00;;;;5034610;28;20223;-58
2022/12/06 04:39:31;;;;;;;1.10;1.10;;;3.00;99.90;2.10;95957.00;;;;5033412;28;20224;-58
2022/12/06 04:44:42;;;;;;;0.97;0.97;;;3.10;99.90;2.10;95950.00;;;;5017039;28;20642;-59
2022/12/06 04:47:09;;;;;;;1.10;1.10;;;3.10;99.90;2.00;95953.00;;;;5034362;28;20234;-60
2022/12/06 04:49:37;;;;;;;1.03;1.03;;;3.00;99.90;2.10;95953.00;;;;5016923;28;20243;-60
2022/12/06 04:52:06;;;;;;;0.90;0.90;;;3.10;99.90;2.10;95943.00;;;;5034137;28;20599;-59
2022/12/06 04:54:35;;;;;;;1.63;1.53;;;3.10;99.90;2.10;95940.00;;;;5017987;28;20219;-59
2022/12/06 04:57:03;;;;;;;1.50;1.40;;;3.10;99.90;2.10;95942.00;;;;5034197;28;20216;-60
2022/12/06 04:59:32;;;;;;;1.20;1.20;;;3.10;99.90;2.10;95945.00;;;;5034147;28;20480;-60
2022/12/06 05:01:58;;;;;;;2.67;2.10;;;3.20;99.90;2.10;95943.00;;;;5034070;28;20235;-60
2022/12/06 05:04:27;;;;;;;2.53;1.47;;;3.10;99.90;2.00;95942.00;;;;5034100;28;20211;-59
2022/12/06 05:06:53;;;;;;;0.80;0.80;;;3.00;99.90;2.10;95940.00;;;;5034001;28;20235;-60
2022/12/06 05:09:20;;;;;;;2.37;1.90;;;3.10;99.90;2.10;95943.00;;;;5034291;28;20548;-59
2022/12/06 05:11:47;;;;;;;0.80;0.80;;;3.10;99.90;2.10;95940.00;;;;5033923;28;20207;-59
2022/12/06 05:14:13;;;;;;;1.20;1.20;;;3.00;99.90;2.10;95947.00;;;;5033913;28;20234;-60
2022/12/06 05:16:40;;;;;;;1.60;1.50;;;3.10;99.90;2.10;95949.00;;;;5034041;28;20200;-60
2022/12/06 05:19:06;;;;;;;1.13;1.13;;;3.10;99.90;2.10;95932.00;;;;5033843;28;20213;-60
2022/12/06 05:21:33;;;;;;;1.00;1.00;;;3.10;99.90;2.10;95936.00;;;;5033989;28;20200;-60
2022/12/06 05:24:00;;;;;;;1.50;1.40;;;3.10;99.90;2.10;95948.00;;;;5033721;28;20303;-58
2022/12/06 05:26:28;;;;;;;1.43;1.33;;;3.10;99.90;2.10;95938.00;;;;5033714;28;20224;-59
2022/12/06 05:28:57;;;;;;;1.07;1.07;;;3.20;99.90;2.20;95939.00;;;;5033638;28;20239;-58
2022/12/06 05:31:25;;;;;;;1.03;1.03;;;3.20;99.90;2.20;95925.00;;;;5016472;28;20569;-60
2022/12/06 05:33:52;;;;;;;2.33;2.20;;;3.20;99.90;2.20;95933.00;;;;5016434;28;20215;-58
2022/12/06 05:36:22;;;;;;;0.87;0.87;;;3.20;99.90;2.10;95934.00;;;;5033723;28;20219;-58
2022/12/06 05:38:50;;;;;;;1.43;1.33;;;3.20;99.90;2.10;95934.00;;;;5033703;28;20266;-58
2022/12/06 05:44:06;;;;;;;1.67;1.57;;;3.10;99.90;1.90;95930.00;;;;5015022;28;20225;-59
2022/12/06 05:46:33;;;;;;;1.30;1.30;;;2.90;99.90;1.90;95927.00;;;;5015977;28;20235;-59
2022/12/06 05:48:59;;;;;;;0.97;0.97;;;2.90;99.90;1.80;95932.00;;;;5016171;28;20483;-59
2022/12/06 05:51:25;;;;;;;0.83;0.83;;;2.90;99.90;1.80;95934.00;;;;5033384;28;20211;-59
2022/12/06 05:53:52;;;;;;;2.43;1.60;;;2.90;99.90;1.90;95940.00;;;;5033398;28;20548;-59
2022/12/06 05:56:18;;;;;;;1.97;1.87;;;2.80;99.90;1.90;95934.00;;;;5016033;28;20196;-58
2022/12/06 05:58:44;;;;;;;0.80;0.80;;;2.90;99.90;1.80;95934.00;;;;5033388;28;20204;-61
2022/12/06 06:01:12;;;;;;;1.60;1.47;;;2.80;99.90;2.00;95939.00;;;;5033275;28;20205;-58
2022/12/06 06:03:38;;;;;;;0.70;0.70;;;2.90;99.90;2.00;95939.00;;;;5033203;28;20210;-58
2022/12/06 06:06:05;;;;;;;1.27;1.23;;;3.00;99.90;2.00;95929.00;;;;5033032;28;20232;-57
2022/12/06 06:08:32;;;;;;;0.90;0.90;;;3.00;99.90;2.00;95932.00;;;;5033215;28;20188;-58
2022/12/06 06:10:59;;;;;;;1.53;1.47;;;3.00;99.90;2.00;95937.00;;;;5033116;28;20650;-56
2022/12/06 06:13:28;;;;;;;1.53;1.43;;;3.00;99.90;2.00;95934.00;;;;5033057;28;20266;-58
2022/12/06 06:15:54;;;;;;;1.10;1.10;;;3.00;99.90;2.10;95935.00;;;;5032911;28;20217;-58
2022/12/06 06:18:22;;;;;;;1.30;1.20;;;3.10;99.90;2.10;95931.00;;;;5033055;28;20639;-61
2022/12/06 06:20:50;;;;;;;0.80;0.80;;;3.10;99.90;2.20;95929.00;;;;5033184;28;20228;-61
2022/12/06 06:23:17;;;;;;;1.70;1.60;;;3.10;99.90;2.20;95924.00;;;;5033288;28;20263;-58
2022/12/06 06:25:44;;;;;;;1.90;1.17;;;3.20;99.90;2.20;95913.00;;;;5033020;28;20323;-62
2022/12/06 06:28:10;;;;;;;1.30;1.23;;;3.20;99.90;2.20;95921.00;;;;5033155;28;20543;-59
2022/12/06 06:30:37;;;;;;;1.63;1.47;;;3.20;99.90;2.20;95925.00;;;;5033044;28;20225;-59
2022/12/06 06:33:03;;;;;;;2.27;0.97;;;3.20;99.90;2.40;95925.00;;;;5033208;28;20214;-58
2022/12/06 06:35:30;;;;;;;2.00;1.80;;;3.30;99.90;2.70;95916.00;;;;5032971;28;20261;-58
2022/12/06 06:37:57;;;;;;;2.00;1.80;;;3.50;99.90;2.60;95922.00;;;;5033174;28;20228;-58
2022/12/06 06:40:26;;;;;;;1.10;1.10;;;3.60;99.90;2.50;95931.00;;;;5032788;28;20235;-59
2022/12/06 06:42:52;;;;;;;0.90;0.90;;;3.50;99.90;2.50;95919.00;;;;5032884;28;20216;-58
2022/12/06 06:45:22;;;;;;;1.13;1.13;;;3.50;99.90;2.40;95919.00;;;;5032647;28;20220;-59
2022/12/06 06:47:48;;;;;;;1.13;1.13;;;3.40;99.90;2.30;95917.00;;;;5032889;28;20201;-59
2022/12/06 06:50:14;;;;;;;0.93;0.93;;;3.40;99.90;2.30;95923.00;;;;5032803;28;20189;-63
2022/12/06 06:52:41;;;;;;;1.40;1.30;;;3.30;99.90;2.40;95925.00;;;;5032625;28;20593;-58
2022/12/06 06:55:08;;;;;;;1.67;1.57;;;3.40;99.90;2.40;95924.00;;;;5032584;28;20217;-57
2022/12/06 06:57:35;;;;;;;1.47;1.37;;;3.40;99.90;2.40;95919.00;;;;5032607;28;20699;-59
2022/12/06 07:00:03;;;;;;;0.90;0.90;;;3.40;99.90;2.30;95919.00;;;;5032546;28;20207;-60
2022/12/06 07:02:30;;;;;;;0.90;0.90;;;3.40;99.90;2.40;95916.00;;;;5033172;28;20200;-62
2022/12/06 07:04:56;;;;;;;1.37;1.37;;;3.40;99.90;2.40;95919.00;;;;5036041;28;20227;-63
2022/12/06 07:07:25;;;;;;;1.30;1.30;;;3.40;99.90;2.30;95926.00;;;;5035810;28;20233;-59
2022/12/06 07:09:52;;;;;;;1.30;1.00;;;3.30;99.90;2.30;95921.00;;;;5035785;28;20260;-60
2022/12/06 07:12:19;;;;;;;1.47;1.37;;;3.40;99.90;2.40;95924.00;;;;5035767;28;20217;-59
2022/12/06 07:14:45;;;;;;;1.10;1.10;;;3.40;99.90;2.20;95925.00;;;;5035821;28;20500;-59
2022/12/06 07:17:11;;;;;;;1.00;1.00;;;3.30;99.90;2.30;95942.00;;;;5035632;28;20220;-59
2022/12/06 07:19:38;;;;;;;1.03;1.03;;;3.30;99.90;2.30;95936.00;;;;5035563;28;20602;-59
2022/12/06 07:22:04;;;;;;;1.50;1.40;;;3.30;99.90;2.30;95934.00;;;;5035678;28;20225;-60
2022/12/06 07:24:31;;;;;;;1.63;1.53;;;3.30;99.90;2.20;95943.00;;;;5035526;28;20561;-57
2022/12/06 07:26:58;;;;;;;0.80;0.80;;;3.20;99.90;2.10;95932.00;;;;5035511;28;20224;-57
2022/12/06 07:29:27;;;;;;;1.80;1.10;;;3.20;99.90;2.20;95932.00;;;;5035481;28;20220;-58
2022/12/06 07:31:53;;;;;;;0.80;0.80;;;3.20;99.90;2.20;95932.00;;;;5035608;28;20192;-58
2022/12/06 07:34:20;;;;;;;1.13;1.13;;;3.20;99.90;2.20;95927.00;;;;5035637;28;20193;-58
2022/12/06 07:36:46;;;;;;;1.20;1.20;;;3.20;99.90;2.30;95931.00;;;;5035432;28;20201;-57
2022/12/06 07:39:12;;;;;;;1.30;1.20;;;3.20;99.90;2.20;95931.00;;;;5035433;28;20228;-57
2022/12/06 07:47:09;;;;;;;0.90;0.90;;;3.10;99.90;2.10;95948.00;;;;5035213;28;20307;-57
2022/12/06 07:49:37;;;;;;;1.90;1.43;;;3.10;99.90;2.10;95943.00;;;;5035200;28;20484;-58
2022/12/06 07:52:04;;;;;;;1.77;1.67;;;3.10;99.90;2.10;95948.00;;;;5035301;28;20682;-61
2022/12/06 07:54:30;;;;;;;1.43;1.40;;;3.10;99.90;2.10;95951.00;;;;5035253;28;20202;-58
2022/12/06 07:56:57;;;;;;;2.53;1.80;;;3.10;99.90;2.20;95947.00;;;;5035336;28;20215;-57
2022/12/06 07:59:24;;;;;;;1.70;1.60;;;3.20;99.90;2.20;95945.00;;;;5035175;28;20337;-57
2022/12/06 08:01:51;;;;;;;1.70;1.60;;;3.20;99.90;2.10;95942.00;;;;5034861;28;20212;-57
2022/12/06 08:04:19;;;;;;;1.10;1.10;;;3.10;99.90;2.10;95952.00;;;;5035008;28;20212;-57
2022/12/06 08:06:45;;;;;;;2.53;2.00;;;3.10;99.90;2.20;95944.00;;;;5034922;28;20220;-58
2022/12/06 08:09:12;;;;;;;1.23;1.23;;;3.20;99.90;2.20;95928.00;;;;5034873;28;20196;-58
2022/12/06 08:11:38;;;;;;;1.23;1.23;;;3.20;99.90;2.20;95941.00;;;;5035002;28;20527;-57
2022/12/06 08:14:05;;;;;;;1.23;1.23;;;3.20;99.90;2.20;95922.00;;;;5017443;28;20247;-57
2022/12/06 08:16:34;;;;;;;1.70;1.07;;;3.20;99.90;2.30;95939.00;;;;5034796;28;20192;-57
2022/12/06 08:19:01;;;;;;;1.23;1.23;;;3.30;99.90;2.30;95937.00;;;;5034708;28;20215;-57
2022/12/06 08:21:28;;;;;;;1.90;1.63;;;3.30;99.90;2.30;95937.00;;;;5034824;28;20212;-57
2022/12/06 08:23:54;;;;;;;1.63;1.53;;;3.30;99.90;2.30;95939.00;;;;5034687;28;20196;-57
2022/12/06 08:26:22;;;;;;;1.37;1.37;;;3.30;99.90;2.30;95934.00;;;;5034729;28;20239;-57
2022/12/06 08:28:48;;;;;;;1.30;1.30;;;3.20;99.90;2.30;95940.00;;;;5034705;28;20656;-57
2022/12/06 08:31:18;;;;;;;1.37;1.33;;;3.30;99.90;2.30;95935.00;;;;5017171;28;20568;-56
2022/12/06 08:33:48;;;;;;;1.07;1.00;;;3.40;99.90;2.40;95937.00;;;;5034645;28;20200;-56
2022/12/06 08:36:20;;;;;;;1.20;1.20;;;3.40;99.90;2.40;95931.00;;;;5034549;28;20207;-56
2022/12/06 08:38:47;;;;;;;0.80;0.80;;;3.40;99.90;2.50;95934.00;;;;5034476;28;20713;-60
2022/12/06 08:43:58;;;;;;;0.90;0.90;;;3.50;99.90;2.60;95925.00;;;;5021756;28;20215;-56
2022/12/06 08:46:26;;;;;;;1.00;1.00;;;3.60;99.90;2.60;95933.00;;;;5017210;28;20225;-57
2022/12/06 08:48:56;;;;;;;1.10;1.10;;;3.60;99.90;2.60;95937.00;;;;5034401;28;20216;-57
2022/12/06 08:51:23;;;;;;;2.03;1.83;;;3.60;99.90;2.70;95936.00;;;;5016882;28;20227;-59
2022/12/06 08:53:52;;;;;;;1.00;1.00;;;3.70;99.90;2.70;95945.00;;;;5034135;28;20201;-56
2022/12/06 08:56:18;;;;;;;1.37;1.37;;;3.70;99.90;2.80;95936.00;;;;5034353;28;20204;-58
2022/12/06 08:58:45;;;;;;;1.63;1.53;;;3.80;99.90;2.80;95935.00;;;;5017127;28;20487;-61
2022/12/06 09:01:14;;;;;;;2.03;1.47;;;3.80;99.90;3.00;95931.00;;;;5034276;28;20236;-63
2022/12/06 09:03:40;;;;;;;2.23;2.03;;;3.90;99.90;2.90;95941.00;;;;5034321;28;20287;-57
2022/12/06 09:06:08;;;;;;;1.97;1.80;;;3.90;99.90;3.00;95946.00;;;;5033862;28;20582;-57
2022/12/06 09:08:38;;;;;;;2.20;2.03;;;3.90;99.90;3.00;95952.00;;;;5034076;28;20545;-57
2022/12/06 09:11:06;;;;;;;2.37;2.17;;;3.90;99.90;3.00;95947.00;;;;5034112;28;20196;-57
2022/12/06 09:13:33;;;;;;;1.63;1.57;;;4.00;99.90;3.00;95955.00;;;;5033926;28;20220;-57
2022/12/06 09:16:00;;;;;;;1.10;1.10;;;4.00;99.90;3.10;95946.00;;;;5033867;28;20643;-57
2022/12/06 09:18:28;;;;;;;1.40;1.40;;;4.00;99.90;3.20;95967.00;;;;5034029;28;20221;-59
2022/12/06 09:20:54;;;;;;;1.30;1.20;;;4.10;99.90;3.10;95951.00;;;;5034057;28;20197;-58
2022/12/06 09:23:21;;;;;;;1.00;1.00;;;4.10;99.90;3.10;95957.00;;;;5016479;28;20688;-57
2022/12/06 09:25:48;;;;;;;1.50;1.40;;;4.10;99.90;3.10;95947.00;;;;5033358;28;20287;-57
2022/12/06 09:28:14;;;;;;;1.37;1.27;;;4.10;99.90;3.10;95960.00;;;;5033750;28;20197;-57
2022/12/06 09:30:41;;;;;;;1.00;1.00;;;4.10;99.90;3.20;95953.00;;;;5033699;28;20670;-57
2022/12/06 09:33:07;;;;;;;0.90;0.90;;;4.10;99.90;3.10;95947.00;;;;5033760;28;20208;-56
2022/12/06 09:35:35;;;;;;;1.20;1.20;;;4.00;99.90;3.10;95963.00;;;;5033622;28;20219;-57
2022/12/06 09:38:02;;;;;;;1.20;1.20;;;4.10;99.90;3.10;95961.00;;;;5033950;28;20646;-58
2022/12/06 09:40:34;;;;;;;1.33;1.33;;;4.00;99.90;3.20;95921.00;;;;5033689;28;20539;-57
2022/12/06 09:43:29;;;;;;;1.03;1.03;;;4.10;99.90;3.30;95956.00;;;;5033751;28;20620;-57
2022/12/06 09:46:24;;;;;;;1.07;1.07;;;4.20;99.90;3.30;95951.00;;;;5033469;28;20192;-57
2022/12/06 09:49:24;;;;;;;1.47;1.43;;;4.20;99.90;3.40;95963.00;;;;5033566;28;20208;-59
2022/12/06 09:52:31;;;;;;;0.87;0.87;;;4.30;99.90;3.30;95960.00;;;;5016104;28;20200;-56
2022/12/06 09:55:17;;;;;;;2.40;1.97;;;4.40;99.30;3.30;95959.00;;;;5033540;28;20196;-57
2022/12/06 09:57:54;;;;;;;3.57;2.13;;;4.30;99.50;3.20;95966.00;;;;5033670;28;20212;-57
2022/12/06 10:00:24;;;;;;;1.03;1.03;;;4.20;98.60;3.40;95955.00;;;;5033526;28;20235;-57
2022/12/06 10:03:25;;;;;;;2.37;2.03;;;4.30;99.50;3.30;95963.00;;;;5033284;28;20276;-57
2022/12/06 10:06:01;;;;;;;1.70;1.60;;;4.30;98.50;3.30;95962.00;;;;5033235;28;20286;-58
2022/12/06 10:09:13;;;;;;;1.67;1.57;;;4.20;99.10;3.20;95961.00;;;;5015870;28;20269;-57
2022/12/06 10:12:02;;;;;;;0.87;0.87;;;4.20;99.40;3.30;95965.00;;;;5016028;28;20201;-58
2022/12/06 10:14:56;;;;;;;0.90;0.90;;;4.20;99.90;3.20;95951.00;;;;5033264;28;20211;-58
2022/12/06 10:17:36;;;;;;;2.10;1.90;;;4.20;99.60;3.10;95936.00;;;;5033347;28;20269;-60
2022/12/06 10:20:14;;;;;;;0.90;0.90;;;4.10;99.90;3.20;95952.00;;;;5033406;28;20674;-58
2022/12/06 10:22:59;;;;;;;1.33;1.23;;;4.10;99.90;3.20;95960.00;;;;5033285;28;20224;-59
2022/12/06 10:25:36;;;;;;;1.10;1.10;;;4.10;99.90;3.20;95959.00;;;;5033606;28;20254;-62
2022/12/06 10:28:13;;;;;;;1.47;1.43;;;4.20;99.90;3.20;95947.00;;;;5033158;28;20235;-57
2022/12/06 10:30:51;;;;;;;2.13;1.97;;;4.10;99.90;3.30;95951.00;;;;5033068;28;20239;-58
2022/12/06 10:33:33;;;;;;;1.70;1.60;;;4.20;99.90;3.30;95931.00;;;;5032874;28;20567;-58
2022/12/06 10:36:02;;;;;;;2.20;1.83;;;4.30;99.90;3.30;95946.00;;;;5033026;28;20311;-58
2022/12/06 10:38:38;;;;;;;3.03;2.27;;;4.30;99.90;3.40;95941.00;;;;5034908;28;20335;-57
2022/12/06 10:41:15;;;;;;;3.67;2.77;;;4.30;99.90;3.40;95934.00;;;;5036781;28;20199;-57
2022/12/06 12:00:16;;;;;;;2.20;2.03;;;4.70;98.30;3.70;95914.00;;;;5758066;23;1076214;-54
2022/12/06 12:02:53;;;;;;;1.63;1.57;;;4.70;98.70;3.70;95915.00;;;;5022224;23;20233;-53
2022/12/06 12:07:19;;;;;;;1.23;1.23;;;4.70;98.60;3.80;95893.00;;;;5110746;27;20847;-54
2022/12/06 12:09:53;;;;;;;2.00;1.87;;;4.70;99.40;3.90;95910.00;;;;5090387;28;20633;-54
2022/12/06 12:12:23;;;;;;;2.97;2.27;;;4.80;99.30;3.90;95912.00;;;;5090657;28;20560;-59
2022/12/06 12:14:57;;;;;;;2.33;2.13;;;4.80;99.20;3.80;95906.00;;;;5090388;28;20196;-55
2022/12/06 12:17:31;;;;;;;1.70;1.60;;;4.80;98.90;3.70;95922.00;;;;5090586;28;20245;-55
2022/12/06 12:20:04;;;;;;;1.70;1.60;;;4.70;98.60;3.70;95916.00;;;;5090274;28;20179;-55
2022/12/06 12:22:39;;;;;;;1.30;1.27;;;4.70;98.30;3.70;95909.00;;;;5090440;28;20230;-55
2022/12/06 12:25:26;;;;;;;2.27;2.17;;;4.70;98.40;3.80;95923.00;;;;5090068;28;20203;-56
2022/12/06 12:27:55;;;;;;;1.90;1.80;;;4.70;98.40;3.80;95916.00;;;;5090367;28;20166;-54
2022/12/06 12:30:35;;;;;;;1.40;1.33;;;4.70;98.20;3.80;95918.00;;;;5090094;28;20195;-54
2022/12/06 12:33:21;;;;;;;1.67;1.57;;;4.80;97.90;3.80;95916.00;;;;5090065;28;20699;-54
2022/12/06 12:35:53;;;;;;;1.33;1.33;;;4.70;98.00;3.70;95910.00;;;;5090028;28;20189;-54
2022/12/06 12:38:38;;;;;;;2.70;2.50;;;4.60;97.60;3.70;95908.00;;;;5090267;28;20182;-53
2022/12/06 12:41:26;;;;;;;1.73;1.67;;;4.60;97.90;3.70;95910.00;;;;5090207;28;20183;-54
2022/12/06 12:44:02;;;;;;;6.60;1.77;;;4.60;97.70;3.60;95915.00;;;;5090040;28;20253;-54
2022/12/06 12:46:38;;;;;;;1.10;1.10;;;4.50;98.10;3.60;95904.00;;;;5089878;28;20207;-54
2022/12/06 12:49:24;;;;;;;1.03;1.03;;;4.60;97.50;3.70;95911.00;;;;5090546;28;20175;-54
2022/12/06 12:51:52;;;;;;;2.03;1.73;;;4.50;97.00;3.50;95924.00;;;;5090055;28;20555;-53
2022/12/06 12:54:27;;;;;;;1.80;1.13;;;4.40;96.80;3.40;95919.00;;;;5090219;28;20187;-53
2022/12/06 12:56:55;;;;;;;1.00;0.93;;;4.40;97.30;3.40;95916.00;;;;5089967;28;20182;-54
2022/12/06 12:59:25;;;;;;;1.80;1.17;;;4.30;97.80;3.50;95906.00;;;;5089935;28;20202;-59
2022/12/06 13:02:00;;;;;;;0.83;0.83;;;4.40;98.60;3.40;95911.00;;;;5090033;28;20211;-54
2022/12/06 13:04:41;;;;;;;1.70;1.60;;;4.40;98.30;3.40;95904.00;;;;5089632;28;20261;-55
2022/12/06 13:07:17;;;;;;;1.03;1.03;;;4.30;98.50;3.40;95906.00;;;;5089544;28;20724;-54
2022/12/06 13:09:56;;;;;;;0.90;0.90;;;4.30;98.40;3.40;95916.00;;;;5089999;28;20179;-54
2022/12/06 13:12:30;;;;;;;1.03;1.03;;;4.30;99.10;3.30;95912.00;;;;5089366;28;20225;-54
2022/12/06 13:15:05;;;;;;;0.80;0.80;;;4.30;98.80;3.30;95917.00;;;;5089645;28;20201;-54